createdAt,value
2022-08-26T00:01:04.874Z,17.69
2022-08-26T00:03:34.187Z,17.70
2022-08-26T00:06:03.151Z,17.75
2022-08-26T00:08:33.236Z,17.70
2022-08-26T00:11:02.547Z,17.71
2022-08-26T00:13:31.509Z,17.72
2022-08-26T00:16:00.968Z,17.71
2022-08-26T00:18:38.585Z,17.70
2022-08-26T00:21:11.272Z,17.70
2022-08-26T00:23:41.493Z,17.76
2022-08-26T00:26:11.094Z,17.73
2022-08-26T00:28:40.259Z,17.65
2022-08-26T00:31:10.896Z,17.59
2022-08-26T00:33:40.127Z,17.52
2022-08-26T00:36:20.069Z,17.51
2022-08-26T00:38:50.736Z,17.52
2022-08-26T00:41:21.631Z,17.44
2022-08-26T00:43:50.510Z,17.37
2022-08-26T00:46:26.581Z,17.40
2022-08-26T00:49:11.984Z,17.46
2022-08-26T00:51:49.232Z,17.39
2022-08-26T00:54:23.928Z,17.35
2022-08-26T00:57:02.214Z,17.31
2022-08-26T00:59:34.126Z,17.24
2022-08-26T01:05:26.468Z,17.30
2022-08-26T01:07:55.934Z,17.33
2022-08-26T01:10:31.564Z,17.35
2022-08-26T01:13:04.371Z,17.33
2022-08-26T01:15:38.602Z,17.33
2022-08-26T01:18:09.201Z,17.34
2022-08-26T01:20:53.673Z,17.35
2022-08-26T01:23:32.647Z,17.32
2022-08-26T01:26:19.567Z,17.35
2022-08-26T01:28:51.813Z,17.44
2022-08-26T01:31:26.587Z,17.67
2022-08-26T01:34:06.831Z,17.79
2022-08-26T01:36:39.973Z,17.90
2022-08-26T01:39:12.160Z,18.01
2022-08-26T01:41:44.052Z,18.12
2022-08-26T01:44:21.271Z,18.18
2022-08-26T01:46:53.497Z,18.26
2022-08-26T01:49:28.293Z,18.33
2022-08-26T01:52:02.280Z,18.42
2022-08-26T01:54:34.615Z,18.43
2022-08-26T01:57:04.329Z,18.47
2022-08-26T01:59:33.286Z,18.49
2022-08-26T02:02:03.121Z,18.49
2022-08-26T02:04:37.829Z,18.50
2022-08-26T02:07:11.049Z,18.50
2022-08-26T02:09:43.109Z,18.48
2022-08-26T02:12:16.238Z,18.49
2022-08-26T02:14:50.393Z,18.48
2022-08-26T02:17:24.646Z,18.47
2022-08-26T02:19:54.686Z,18.49
2022-08-26T02:22:25.408Z,18.47
2022-08-26T02:25:00.211Z,18.48
2022-08-26T02:27:33.329Z,18.48
2022-08-26T02:30:10.818Z,18.49
2022-08-26T02:32:40.110Z,18.50
2022-08-26T02:35:12.100Z,18.47
2022-08-26T02:37:42.015Z,18.48
2022-08-26T02:40:16.401Z,18.48
2022-08-26T02:42:45.239Z,18.48
2022-08-26T02:45:14.594Z,18.48
2022-08-26T02:47:47.077Z,18.48
2022-08-26T02:50:16.381Z,18.45
2022-08-26T02:52:46.295Z,18.43
2022-08-26T02:55:17.397Z,18.44
2022-08-26T02:57:46.937Z,18.44
2022-08-26T03:00:17.570Z,18.44
2022-08-26T03:05:26.312Z,18.40
2022-08-26T03:07:57.271Z,18.39
2022-08-26T03:10:31.677Z,18.38
2022-08-26T03:13:01.655Z,18.39
2022-08-26T03:15:37.560Z,18.38
2022-08-26T03:18:06.855Z,18.38
2022-08-26T03:20:37.674Z,18.38
2022-08-26T03:23:06.816Z,18.40
2022-08-26T03:25:35.726Z,18.43
2022-08-26T03:28:05.532Z,18.45
2022-08-26T03:30:45.131Z,18.42
2022-08-26T03:33:15.748Z,18.44
2022-08-26T03:35:50.628Z,18.43
2022-08-26T03:38:21.101Z,18.42
2022-08-26T03:40:50.001Z,18.39
2022-08-26T03:43:20.219Z,18.40
2022-08-26T03:45:48.983Z,18.39
2022-08-26T03:48:20.005Z,18.44
2022-08-26T03:50:50.387Z,18.46
2022-08-26T03:53:20.639Z,18.45
2022-08-26T03:55:52.067Z,18.47
2022-08-26T03:58:21.870Z,18.45
2022-08-26T04:00:55.554Z,18.42
2022-08-26T04:03:38.743Z,18.43
2022-08-26T04:06:09.561Z,18.45
2022-08-26T04:08:38.966Z,18.44
2022-08-26T04:11:08.669Z,18.44
2022-08-26T04:13:38.955Z,18.45
2022-08-26T04:16:09.434Z,18.47
2022-08-26T04:18:40.606Z,18.49
2022-08-26T04:21:16.717Z,18.50
2022-08-26T04:23:47.131Z,18.49
2022-08-26T04:26:17.584Z,18.52
2022-08-26T04:28:48.531Z,18.52
2022-08-26T04:31:19.488Z,18.53
2022-08-26T04:33:51.116Z,18.48
2022-08-26T04:36:21.201Z,18.50
2022-08-26T04:38:50.774Z,18.52
2022-08-26T04:41:21.026Z,18.56
2022-08-26T04:43:50.472Z,18.58
2022-08-26T04:46:23.287Z,18.59
2022-08-26T04:48:53.686Z,18.64
2022-08-26T04:51:28.321Z,18.63
2022-08-26T04:53:57.450Z,18.62
2022-08-26T04:56:27.512Z,18.61
2022-08-26T04:58:57.906Z,18.68
2022-08-26T05:01:27.826Z,18.70
2022-08-26T05:05:25.986Z,18.76
2022-08-26T05:07:55.009Z,18.74
2022-08-26T05:10:24.194Z,18.77
2022-08-26T05:12:53.329Z,18.82
2022-08-26T05:15:22.224Z,18.80
2022-08-26T05:17:52.115Z,18.76
2022-08-26T05:20:25.128Z,18.76
2022-08-26T05:22:56.280Z,18.81
2022-08-26T05:25:25.622Z,18.78
2022-08-26T05:27:56.391Z,18.88
2022-08-26T05:30:25.605Z,18.95
2022-08-26T05:32:55.421Z,19.01
2022-08-26T05:35:25.136Z,19.06
2022-08-26T05:37:55.496Z,19.19
2022-08-26T05:40:24.155Z,19.23
2022-08-26T05:42:55.291Z,19.13
2022-08-26T05:45:27.255Z,19.10
2022-08-26T05:47:56.664Z,19.06
2022-08-26T05:50:26.313Z,19.06
2022-08-26T05:52:56.597Z,19.14
2022-08-26T05:55:25.627Z,19.16
2022-08-26T05:57:54.765Z,19.21
2022-08-26T06:00:24.499Z,19.30
2022-08-26T06:02:56.609Z,19.31
2022-08-26T06:05:25.878Z,19.45
2022-08-26T06:08:15.446Z,19.45
2022-08-26T06:10:53.066Z,19.60
2022-08-26T06:13:26.120Z,19.63
2022-08-26T06:15:59.583Z,19.73
2022-08-26T06:18:33.169Z,19.66
2022-08-26T06:21:16.914Z,19.66
2022-08-26T06:24:08.760Z,19.70
2022-08-26T06:26:39.609Z,19.79
2022-08-26T06:29:11.777Z,19.84
2022-08-26T06:31:44.540Z,19.98
2022-08-26T06:34:14.016Z,19.87
2022-08-26T06:36:46.154Z,20.02
2022-08-26T06:39:19.120Z,20.18
2022-08-26T06:41:49.136Z,20.32
2022-08-26T06:44:17.837Z,20.41
2022-08-26T06:46:50.501Z,20.47
2022-08-26T06:49:26.807Z,20.55
2022-08-26T06:51:58.610Z,20.65
2022-08-26T06:54:31.904Z,20.58
2022-08-26T06:57:01.580Z,20.43
2022-08-26T06:59:31.282Z,20.52
2022-08-26T07:05:26.467Z,20.68
2022-08-26T07:07:55.579Z,20.67
2022-08-26T07:10:24.274Z,20.71
2022-08-26T07:12:53.748Z,20.96
2022-08-26T07:15:23.973Z,20.78
2022-08-26T07:17:59.875Z,20.81
2022-08-26T07:20:30.576Z,20.98
2022-08-26T07:22:59.494Z,20.93
2022-08-26T07:25:28.067Z,21.05
2022-08-26T07:27:57.721Z,21.14
2022-08-26T07:30:26.546Z,21.20
2022-08-26T07:32:59.303Z,21.32
2022-08-26T07:35:29.551Z,21.42
2022-08-26T07:37:58.238Z,21.66
2022-08-26T07:40:27.084Z,21.76
2022-08-26T07:42:55.978Z,21.96
2022-08-26T07:45:25.457Z,22.14
2022-08-26T07:47:54.727Z,22.22
2022-08-26T07:50:49.120Z,22.39
2022-08-26T07:53:15.029Z,22.16
2022-08-26T07:55:48.505Z,22.21
2022-08-26T07:58:18.340Z,22.33
2022-08-26T08:00:47.648Z,22.28
2022-08-26T08:03:17.310Z,22.46
2022-08-26T08:05:46.872Z,22.47
2022-08-26T08:08:27.223Z,22.62
2022-08-26T08:10:58.258Z,22.72
2022-08-26T08:13:28.695Z,22.67
2022-08-26T08:15:57.784Z,22.66
2022-08-26T08:18:28.678Z,22.60
2022-08-26T08:21:10.806Z,22.76
2022-08-26T08:23:48.204Z,23.03
2022-08-26T08:26:16.989Z,22.72
2022-08-26T08:28:47.957Z,22.80
2022-08-26T08:31:54.341Z,23.10
2022-08-26T08:34:13.100Z,23.33
2022-08-26T08:36:41.938Z,23.59
2022-08-26T08:39:12.912Z,23.63
2022-08-26T08:42:39.183Z,24.04
2022-08-26T08:45:13.999Z,24.13
2022-08-26T08:47:54.093Z,23.91
2022-08-26T08:50:31.695Z,23.89
2022-08-26T08:53:15.287Z,23.94
2022-08-26T08:56:09.458Z,24.09
2022-08-26T08:59:04.394Z,24.04
2022-08-26T09:05:37.932Z,24.83
2022-08-26T09:08:16.324Z,25.06
2022-08-26T09:10:56.118Z,24.99
2022-08-26T09:13:27.301Z,24.67
2022-08-26T09:16:07.793Z,24.69
2022-08-26T09:18:52.907Z,25.15
2022-08-26T09:21:25.568Z,25.88
2022-08-26T09:23:57.194Z,25.94
2022-08-26T09:26:30.591Z,26.02
2022-08-26T09:29:04.612Z,26.00
2022-08-26T09:31:36.138Z,25.57
2022-08-26T09:34:17.352Z,25.03
2022-08-26T09:36:51.514Z,25.08
2022-08-26T09:39:33.370Z,25.36
2022-08-26T09:42:09.580Z,25.65
2022-08-26T09:44:55.708Z,25.54
2022-08-26T09:47:31.570Z,25.53
2022-08-26T09:50:09.594Z,26.39
2022-08-26T09:52:42.723Z,27.03
2022-08-26T09:55:16.217Z,26.74
2022-08-26T09:57:51.093Z,26.91
2022-08-26T10:00:30.277Z,27.47
2022-08-26T10:02:59.966Z,27.58
2022-08-26T10:05:32.109Z,27.78
2022-08-26T10:08:12.160Z,27.45
2022-08-26T10:10:45.097Z,27.74
2022-08-26T10:13:18.668Z,27.24
2022-08-26T10:16:01.153Z,27.15
2022-08-26T10:18:34.752Z,26.92
2022-08-26T10:21:10.934Z,26.91
2022-08-26T10:23:45.063Z,27.47
2022-08-26T10:26:17.807Z,27.69
2022-08-26T10:28:55.070Z,27.94
2022-08-26T10:31:30.796Z,27.84
2022-08-26T10:34:10.034Z,27.84
2022-08-26T10:37:13.537Z,27.81
2022-08-26T10:39:56.924Z,28.12
2022-08-26T10:42:31.422Z,28.42
2022-08-26T10:45:07.650Z,27.94
2022-08-26T10:47:49.905Z,27.61
2022-08-26T10:50:18.852Z,27.80
2022-08-26T10:53:01.497Z,28.20
2022-08-26T10:55:37.259Z,28.70
2022-08-26T10:58:29.430Z,28.71
2022-08-26T11:01:23.576Z,28.09
2022-08-26T11:05:25.628Z,28.01
2022-08-26T11:07:57.112Z,27.92
2022-08-26T11:11:05.270Z,27.77
2022-08-26T11:14:04.515Z,28.07
2022-08-26T11:16:35.556Z,27.92
2022-08-26T11:19:13.159Z,28.09
2022-08-26T11:21:53.497Z,28.12
2022-08-26T11:24:42.705Z,28.40
2022-08-26T11:28:05.467Z,28.63
2022-08-26T11:30:57.000Z,28.75
2022-08-26T11:33:49.265Z,28.59
2022-08-26T11:36:41.037Z,28.76
2022-08-26T11:39:21.523Z,29.03
2022-08-26T11:41:54.180Z,29.21
2022-08-26T11:44:24.872Z,29.24
2022-08-26T11:46:57.039Z,29.18
2022-08-26T11:49:26.195Z,28.76
2022-08-26T11:52:09.385Z,28.61
2022-08-26T11:54:39.299Z,28.43
2022-08-26T11:57:13.599Z,28.21
2022-08-26T11:59:43.624Z,28.27
2022-08-26T12:02:18.667Z,28.35
2022-08-26T12:04:50.850Z,28.69
2022-08-26T12:07:25.321Z,28.93
2022-08-26T12:09:59.028Z,28.98
2022-08-26T12:12:35.047Z,29.32
2022-08-26T12:15:18.954Z,29.82
2022-08-26T12:17:52.927Z,29.63
2022-08-26T12:20:46.082Z,30.05
2022-08-26T12:23:29.622Z,29.90
2022-08-26T12:26:08.643Z,30.13
2022-08-26T12:28:45.057Z,30.95
2022-08-26T12:31:20.707Z,30.60
2022-08-26T12:33:50.675Z,31.18
2022-08-26T12:36:29.364Z,30.85
2022-08-26T12:38:58.642Z,30.60
2022-08-26T12:41:44.700Z,30.76
2022-08-26T12:45:00.278Z,31.08
2022-08-26T12:47:43.015Z,31.99
2022-08-26T12:50:21.402Z,32.45
2022-08-26T12:53:00.657Z,33.42
2022-08-26T12:55:40.884Z,33.67
2022-08-26T12:58:28.351Z,31.76
2022-08-26T13:00:59.668Z,31.97
2022-08-26T13:05:29.349Z,32.83
2022-08-26T13:08:26.226Z,33.62
2022-08-26T13:11:10.659Z,34.37
2022-08-26T13:13:41.650Z,34.35
2022-08-26T13:16:10.592Z,35.36
2022-08-26T13:18:39.457Z,35.74
2022-08-26T13:21:17.487Z,35.98
2022-08-26T13:23:46.359Z,34.13
2022-08-26T13:26:18.653Z,33.02
2022-08-26T13:28:48.619Z,33.53
2022-08-26T13:31:34.856Z,33.48
2022-08-26T13:34:04.500Z,32.11
2022-08-26T13:36:34.510Z,31.44
2022-08-26T13:39:03.404Z,30.10
2022-08-26T13:41:32.444Z,29.96
2022-08-26T13:44:01.405Z,29.53
2022-08-26T13:46:30.990Z,29.75
2022-08-26T13:49:01.067Z,29.69
2022-08-26T13:51:31.081Z,28.23
2022-08-26T13:54:02.049Z,28.25
2022-08-26T13:56:32.224Z,27.71
2022-08-26T13:59:02.233Z,27.35
2022-08-26T14:01:34.138Z,27.37
2022-08-26T14:04:03.829Z,27.33
2022-08-26T14:06:33.233Z,27.36
2022-08-26T14:09:03.273Z,27.34
2022-08-26T14:11:39.023Z,27.37
2022-08-26T14:14:19.488Z,27.62
2022-08-26T14:16:58.992Z,27.45
2022-08-26T14:19:30.820Z,27.28
2022-08-26T14:22:01.017Z,26.92
2022-08-26T14:24:31.937Z,27.07
2022-08-26T14:27:00.568Z,27.37
2022-08-26T14:29:29.509Z,27.66
2022-08-26T14:32:02.776Z,27.81
2022-08-26T14:34:31.436Z,27.87
2022-08-26T14:37:07.380Z,27.90
2022-08-26T14:40:19.724Z,27.74
2022-08-26T14:43:32.780Z,28.17
2022-08-26T14:54:54.983Z,26.82
2022-08-26T14:58:20.010Z,26.85
2022-08-26T15:15:52.131Z,29.27
2022-08-26T15:18:20.731Z,27.94
2022-08-26T15:20:49.683Z,28.03
2022-08-26T15:23:18.193Z,27.83
2022-08-26T15:25:48.338Z,27.54
2022-08-26T15:28:17.118Z,27.15
2022-08-26T15:30:45.653Z,27.21
2022-08-26T15:33:15.906Z,27.10
2022-08-26T15:35:44.613Z,27.43
2022-08-26T15:38:14.025Z,27.45
2022-08-26T15:40:43.479Z,27.45
2022-08-26T15:43:27.823Z,27.46
2022-08-26T15:45:56.729Z,27.48
2022-08-26T15:48:26.813Z,27.20
2022-08-26T15:50:57.585Z,27.12
2022-08-26T15:53:26.311Z,26.91
2022-08-26T15:55:56.325Z,27.00
2022-08-26T15:58:25.161Z,26.75
2022-08-26T16:00:56.709Z,26.77
2022-08-26T16:03:26.635Z,26.76
2022-08-26T16:05:55.033Z,26.34
2022-08-26T16:08:23.472Z,25.92
2022-08-26T16:10:52.519Z,25.82
2022-08-26T16:13:21.748Z,25.58
2022-08-26T16:15:50.214Z,25.38
2022-08-26T16:18:20.435Z,25.32
2022-08-26T16:21:12.644Z,25.38
2022-08-26T16:23:45.098Z,25.39
2022-08-26T16:26:16.570Z,25.14
2022-08-26T16:28:45.341Z,24.95
2022-08-26T16:31:14.118Z,24.71
2022-08-26T16:33:43.260Z,24.79
2022-08-26T16:36:14.162Z,24.92
2022-08-26T16:38:50.066Z,25.03
2022-08-26T16:41:18.915Z,25.03
2022-08-26T16:43:47.825Z,25.08
2022-08-26T16:46:16.511Z,25.19
2022-08-26T16:48:45.578Z,25.16
2022-08-26T16:51:18.079Z,25.06
2022-08-26T16:53:47.092Z,25.14
2022-08-26T16:56:16.866Z,25.03
2022-08-26T16:58:45.720Z,24.86
2022-08-26T17:01:14.153Z,24.78
2022-08-26T17:05:26.256Z,24.46
2022-08-26T17:07:55.805Z,24.21
2022-08-26T17:10:25.601Z,24.06
2022-08-26T17:12:54.288Z,23.87
2022-08-26T17:15:23.827Z,23.74
2022-08-26T17:17:52.769Z,23.62
2022-08-26T17:20:22.862Z,23.35
2022-08-26T17:22:54.806Z,23.26
2022-08-26T17:25:37.279Z,23.11
2022-08-26T17:28:07.516Z,22.97
2022-08-26T17:30:42.671Z,22.86
2022-08-26T17:33:11.623Z,22.75
2022-08-26T17:35:40.060Z,22.62
2022-08-26T17:38:10.771Z,22.50
2022-08-26T17:40:40.554Z,22.40
2022-08-26T17:43:12.198Z,22.32
2022-08-26T17:45:42.086Z,22.26
2022-08-26T17:48:11.358Z,22.19
2022-08-26T17:50:49.387Z,22.10
2022-08-26T17:53:19.860Z,22.05
2022-08-26T17:55:50.812Z,21.98
2022-08-26T17:58:23.397Z,21.86
2022-08-26T18:00:54.438Z,21.78
2022-08-26T18:03:23.098Z,21.72
2022-08-26T18:05:53.439Z,21.66
2022-08-26T18:08:23.787Z,21.62
2022-08-26T18:10:52.203Z,21.59
2022-08-26T18:13:22.596Z,21.55
2022-08-26T18:15:51.449Z,21.51
2022-08-26T18:18:19.920Z,21.47
2022-08-26T18:20:52.628Z,21.41
2022-08-26T18:23:32.373Z,21.35
2022-08-26T18:26:01.024Z,21.35
2022-08-26T18:28:29.563Z,21.30
2022-08-26T18:31:00.912Z,21.25
2022-08-26T18:33:29.421Z,21.19
2022-08-26T18:35:59.543Z,21.14
2022-08-26T18:38:28.523Z,21.06
2022-08-26T18:40:58.321Z,20.88
2022-08-26T18:43:26.757Z,20.74
2022-08-26T18:46:03.610Z,20.58
2022-08-26T18:48:32.322Z,20.44
2022-08-26T18:51:01.349Z,20.34
2022-08-26T18:53:30.534Z,20.28
2022-08-26T18:56:00.816Z,20.21
2022-08-26T18:58:29.245Z,20.13
2022-08-26T19:00:58.350Z,20.08
2022-08-26T19:05:34.993Z,20.00
2022-08-26T19:08:13.988Z,19.98
2022-08-26T19:10:42.981Z,19.93
2022-08-26T19:13:11.779Z,19.89
2022-08-26T19:15:41.407Z,19.87
2022-08-26T19:18:18.514Z,19.86
2022-08-26T19:20:49.141Z,19.84
2022-08-26T19:23:31.886Z,19.83
2022-08-26T19:26:04.938Z,19.83
2022-08-26T19:28:37.197Z,19.83
2022-08-26T19:31:05.854Z,19.83
2022-08-26T19:33:34.433Z,19.83
2022-08-26T19:36:06.486Z,19.81
2022-08-26T19:38:35.280Z,19.83
2022-08-26T19:41:03.827Z,19.86
2022-08-26T19:43:32.341Z,19.82
2022-08-26T19:46:00.977Z,19.81
2022-08-26T19:48:29.970Z,19.78
2022-08-26T19:50:58.351Z,19.77
2022-08-26T19:53:28.003Z,19.77
2022-08-26T19:56:11.125Z,19.75
2022-08-26T19:58:39.640Z,19.74
2022-08-26T20:01:08.802Z,19.72
2022-08-26T20:03:38.599Z,19.69
2022-08-26T20:06:09.338Z,19.69
2022-08-26T20:08:41.346Z,19.73
2022-08-26T20:11:12.423Z,19.73
2022-08-26T20:13:41.850Z,19.75
2022-08-26T20:16:12.329Z,19.76
2022-08-26T20:18:59.242Z,19.75
2022-08-26T20:21:29.420Z,19.73
2022-08-26T20:24:01.886Z,19.72
2022-08-26T20:26:31.941Z,19.75
2022-08-26T20:29:04.829Z,19.75
2022-08-26T20:31:33.624Z,19.75
2022-08-26T20:34:02.125Z,19.75
2022-08-26T20:36:31.351Z,19.78
2022-08-26T20:39:01.564Z,19.79
2022-08-26T20:41:31.686Z,19.79
2022-08-26T20:44:03.851Z,19.78
2022-08-26T20:46:33.947Z,19.80
2022-08-26T20:49:02.502Z,19.78
2022-08-26T20:51:37.483Z,19.79
2022-08-26T20:54:08.852Z,19.78
2022-08-26T20:56:37.879Z,19.79
2022-08-26T20:59:08.056Z,19.83
2022-08-26T21:01:42.447Z,19.83
2022-08-26T21:05:25.065Z,19.83
2022-08-26T21:07:53.509Z,19.83
2022-08-26T21:10:23.012Z,19.80
2022-08-26T21:12:55.580Z,19.79
2022-08-26T21:15:23.935Z,19.76
2022-08-26T21:17:53.063Z,19.75
2022-08-26T21:20:21.544Z,19.76
2022-08-26T21:22:52.015Z,19.74
2022-08-26T21:25:21.576Z,19.81
2022-08-26T21:27:50.206Z,19.81
2022-08-26T21:30:18.941Z,19.78
2022-08-26T21:32:47.389Z,19.76
2022-08-26T21:35:19.205Z,19.75
2022-08-26T21:37:47.973Z,19.77
2022-08-26T21:40:18.109Z,19.81
2022-08-26T21:42:46.538Z,19.81
2022-08-26T21:45:17.035Z,19.78
2022-08-26T21:47:48.250Z,19.80
2022-08-26T21:50:17.323Z,19.84
2022-08-26T21:52:45.799Z,19.87
2022-08-26T21:55:14.237Z,19.85
2022-08-26T21:57:43.984Z,19.82
2022-08-26T22:00:15.772Z,19.77
2022-08-26T22:02:45.246Z,19.74
2022-08-26T22:05:13.992Z,19.67
2022-08-26T22:07:42.319Z,19.60
2022-08-26T22:10:11.004Z,19.57
2022-08-26T22:12:39.519Z,19.56
2022-08-26T22:15:10.990Z,19.57
2022-08-26T22:17:39.856Z,19.61
2022-08-26T22:20:16.501Z,19.58
2022-08-26T22:22:45.926Z,19.55
2022-08-26T22:25:14.411Z,19.52
2022-08-26T22:27:45.493Z,19.48
2022-08-26T22:30:15.496Z,19.46
2022-08-26T22:32:45.970Z,19.47
2022-08-26T22:35:28.739Z,19.47
2022-08-26T22:37:58.012Z,19.41
2022-08-26T22:40:26.894Z,19.42
2022-08-26T22:43:00.054Z,19.38
2022-08-26T22:45:31.452Z,19.35
2022-08-26T22:48:00.075Z,19.32
2022-08-26T22:50:28.370Z,19.29
2022-08-26T22:52:56.946Z,19.27
2022-08-26T22:55:25.396Z,19.25
2022-08-26T22:57:53.798Z,19.22
2022-08-26T23:00:22.537Z,19.19
2022-08-26T23:05:25.005Z,19.19
2022-08-26T23:07:54.128Z,19.16
2022-08-26T23:10:22.692Z,19.11
2022-08-26T23:12:52.489Z,19.08
2022-08-26T23:15:24.137Z,19.03
2022-08-26T23:17:58.543Z,18.97
2022-08-26T23:20:29.360Z,18.96
2022-08-26T23:22:57.842Z,18.94
2022-08-26T23:25:27.303Z,18.97
2022-08-26T23:27:57.079Z,18.93
2022-08-26T23:30:27.893Z,18.93
2022-08-26T23:32:56.268Z,18.95
2022-08-26T23:35:24.954Z,19.00
2022-08-26T23:37:54.808Z,19.04
2022-08-26T23:40:30.384Z,19.03
2022-08-26T23:43:00.464Z,19.01
2022-08-26T23:45:29.778Z,19.01
2022-08-26T23:47:58.136Z,19.02
2022-08-26T23:50:49.194Z,19.02
2022-08-26T23:53:20.930Z,19.08
2022-08-26T23:55:51.273Z,19.14
2022-08-26T23:58:21.438Z,19.20
